Time;durP1;ratioP1;P1;durP2;ratioP2;P2;SDS_P1;SDS_P2;PMS_P1;PMS_P2;Temp;Humidity;BMP_temperature;BMP_pressure;BME280_temperature;BME280_humidity;BME280_pressure;Samples;Min_cycle;Max_cycle;Signal;HPM_P1;HPM_P2
2022/09/18 00:00:04;;;;;;;12.45;3.42;;;10.50;99.90;;;;;;5030331;28;20037;-53
2022/09/18 00:02:50;;;;;;;8.68;3.03;;;10.50;99.90;;;;;;5024774;28;20108;-49
2022/09/18 00:05:37;;;;;;;8.68;3.08;;;10.50;99.90;;;;;;5031641;28;20021;-55
2022/09/18 00:08:23;;;;;;;10.82;3.17;;;10.50;99.90;;;;;;5029089;28;20492;-50
2022/09/18 00:11:12;;;;;;;6.15;2.90;;;10.50;99.90;;;;;;5029659;28;20026;-55
2022/09/18 00:13:58;;;;;;;10.25;3.85;;;10.60;99.90;;;;;;5016175;28;20038;-51
2022/09/18 00:16:44;;;;;;;9.38;3.38;;;10.60;99.90;;;;;;5011087;28;20049;-49
2022/09/18 00:19:30;;;;;;;10.65;3.22;;;10.50;99.90;;;;;;5025749;28;20034;-51
2022/09/18 00:22:17;;;;;;;9.10;3.70;;;10.50;99.90;;;;;;5029507;28;20037;-52
2022/09/18 00:25:03;;;;;;;11.30;3.28;;;10.50;99.90;;;;;;5028596;28;20029;-51
2022/09/18 00:27:49;;;;;;;10.23;3.22;;;10.60;99.90;;;;;;5030192;28;20165;-51
2022/09/18 00:30:35;;;;;;;11.07;3.25;;;10.40;99.90;;;;;;5024811;28;20034;-54
2022/09/18 00:33:21;;;;;;;8.38;2.90;;;10.50;99.90;;;;;;5030458;28;20036;-53
2022/09/18 00:36:10;;;;;;;5.68;2.78;;;10.60;99.90;;;;;;5029401;28;20037;-50
2022/09/18 00:39:01;;;;;;;9.27;2.92;;;10.60;99.90;;;;;;5031140;28;20473;-50
2022/09/18 00:41:48;;;;;;;9.95;3.05;;;10.60;99.90;;;;;;5012091;28;20036;-52
2022/09/18 00:44:45;;;;;;;8.15;3.35;;;10.60;99.90;;;;;;5010602;28;20083;-52
2022/09/18 00:47:34;;;;;;;6.93;2.70;;;10.50;99.90;;;;;;5010425;28;20379;-54
2022/09/18 00:50:23;;;;;;;10.55;2.85;;;10.50;99.90;;;;;;5017442;28;20063;-50
2022/09/18 00:53:10;;;;;;;9.43;2.60;;;10.60;99.90;;;;;;5029688;28;20482;-50
2022/09/18 00:55:58;;;;;;;9.27;2.95;;;10.60;99.90;;;;;;5029571;28;20041;-50
2022/09/18 00:58:44;;;;;;;9.27;3.00;;;10.60;99.90;;;;;;5029937;28;20413;-50
2022/09/18 01:01:30;;;;;;;9.73;2.85;;;10.60;99.90;;;;;;5028641;28;20029;-52
2022/09/18 01:04:16;;;;;;;6.63;3.13;;;10.60;99.90;;;;;;5017151;28;20029;-54
2022/09/18 01:07:12;;;;;;;8.43;2.35;;;10.50;99.90;;;;;;5029215;28;20437;-56
2022/09/18 01:10:08;;;;;;;8.25;2.35;;;10.50;99.90;;;;;;5030043;28;20025;-51
2022/09/18 01:13:12;;;;;;;7.18;2.53;;;10.50;99.90;;;;;;5010600;28;20026;-53
2022/09/18 01:16:01;;;;;;;7.85;2.47;;;10.50;99.90;;;;;;5018004;28;20490;-54
2022/09/18 01:19:05;;;;;;;8.38;3.00;;;10.50;99.90;;;;;;5029315;28;20405;-55
2022/09/18 01:22:24;;;;;;;9.43;2.88;;;10.60;99.90;;;;;;5028431;28;20017;-53
2022/09/18 01:25:16;;;;;;;7.25;3.13;;;10.60;99.90;;;;;;5029541;28;20025;-52
2022/09/18 01:28:23;;;;;;;5.57;2.90;;;10.50;99.90;;;;;;5015793;28;20568;-51
2022/09/18 01:31:17;;;;;;;6.38;2.33;;;10.50;99.90;;;;;;5016391;28;20034;-55
2022/09/18 01:34:07;;;;;;;5.55;2.20;;;10.60;99.90;;;;;;5029689;28;20079;-50
2022/09/18 01:37:01;;;;;;;7.18;2.10;;;10.50;99.90;;;;;;5017249;28;20056;-51
2022/09/18 01:40:11;;;;;;;11.95;2.72;;;10.60;99.90;;;;;;5033033;28;20029;-51
2022/09/18 01:43:01;;;;;;;5.60;2.15;;;10.50;99.90;;;;;;5019378;28;20026;-58
2022/09/18 01:45:50;;;;;;;6.85;2.55;;;10.50;99.90;;;;;;5033797;28;20018;-54
2022/09/18 01:48:44;;;;;;;9.45;2.95;;;10.40;99.90;;;;;;5033439;28;20029;-55
2022/09/18 01:51:43;;;;;;;8.27;2.53;;;10.40;99.90;;;;;;5012755;28;20037;-54
2022/09/18 01:54:36;;;;;;;7.53;2.60;;;10.40;99.90;;;;;;5020377;28;20441;-53
2022/09/18 01:57:32;;;;;;;8.85;3.50;;;10.30;99.90;;;;;;5032289;28;20029;-53
2022/09/18 02:00:19;;;;;;;11.30;3.00;;;10.20;99.90;;;;;;5019442;28;20030;-53
2022/09/18 02:03:10;;;;;;;10.32;3.17;;;10.30;99.90;;;;;;5012882;28;20109;-54
2022/09/18 02:06:32;;;;;;;10.57;3.08;;;10.30;99.90;;;;;;5014697;28;20026;-51
2022/09/18 02:09:18;;;;;;;7.68;3.53;;;10.20;99.90;;;;;;5014628;28;20110;-56
2022/09/18 02:12:07;;;;;;;8.90;2.90;;;10.20;99.90;;;;;;5012606;28;20152;-52
2022/09/18 02:14:59;;;;;;;11.40;3.72;;;10.20;99.90;;;;;;5014448;28;20037;-50
2022/09/18 02:17:47;;;;;;;8.57;3.15;;;10.10;99.90;;;;;;5012906;28;20571;-53
2022/09/18 02:20:35;;;;;;;9.20;2.90;;;10.00;99.90;;;;;;5027874;28;20087;-51
2022/09/18 02:23:27;;;;;;;9.95;3.17;;;10.00;99.90;;;;;;5032891;28;20037;-55
2022/09/18 02:26:13;;;;;;;11.18;3.67;;;10.00;99.90;;;;;;5014239;28;20025;-53
2022/09/18 02:29:01;;;;;;;9.82;3.03;;;9.90;99.90;;;;;;5021808;28;20091;-49
2022/09/18 02:31:48;;;;;;;15.52;4.57;;;9.90;99.90;;;;;;5028498;28;20032;-52
2022/09/18 02:34:34;;;;;;;12.13;3.20;;;9.80;99.90;;;;;;5033289;28;20025;-55
2022/09/18 02:37:31;;;;;;;9.30;3.13;;;9.80;99.90;;;;;;5032251;28;20107;-54
2022/09/18 02:40:18;;;;;;;8.85;3.20;;;9.90;99.90;;;;;;5032581;28;20025;-50
2022/09/18 02:43:25;;;;;;;12.50;3.08;;;9.90;99.90;;;;;;5032139;28;20017;-51
2022/09/18 02:46:26;;;;;;;9.52;3.38;;;9.90;99.90;;;;;;5030376;28;20030;-51
2022/09/18 02:49:47;;;;;;;13.43;3.47;;;9.80;99.90;;;;;;5031118;28;20021;-56
2022/09/18 02:52:38;;;;;;;7.35;3.00;;;9.80;99.90;;;;;;5030413;28;20528;-51
2022/09/18 02:55:28;;;;;;;9.63;3.95;;;9.80;99.90;;;;;;5031248;28;20033;-49
2022/09/18 02:58:28;;;;;;;10.68;3.17;;;9.80;99.90;;;;;;5031614;28;20426;-55
2022/09/18 03:01:16;;;;;;;13.77;3.30;;;9.80;99.90;;;;;;5031223;28;20079;-53
2022/09/18 03:04:04;;;;;;;11.93;3.85;;;9.90;99.90;;;;;;5032383;28;20060;-56
2022/09/18 03:06:51;;;;;;;10.48;2.88;;;9.80;99.90;;;;;;5032483;28;20037;-55
2022/09/18 03:09:37;;;;;;;10.90;2.88;;;9.80;99.90;;;;;;5032729;28;20543;-53
2022/09/18 03:12:23;;;;;;;9.25;3.33;;;9.70;99.90;;;;;;5031259;28;20091;-52
2022/09/18 03:15:10;;;;;;;9.93;3.25;;;9.60;99.90;;;;;;5031237;28;20112;-52
2022/09/18 03:17:56;;;;;;;10.55;3.15;;;9.60;99.90;;;;;;5031377;28;20121;-48
2022/09/18 03:20:42;;;;;;;12.50;4.25;;;9.50;99.90;;;;;;5031926;28;20025;-50
2022/09/18 03:23:28;;;;;;;14.75;4.13;;;9.50;99.90;;;;;;5030572;28;20405;-50
2022/09/18 03:26:14;;;;;;;8.98;3.35;;;9.60;99.90;;;;;;5017275;28;20493;-54
2022/09/18 03:29:00;;;;;;;10.93;3.00;;;9.70;99.90;;;;;;5031213;28;20029;-50
2022/09/18 03:31:46;;;;;;;11.20;3.63;;;9.60;99.90;;;;;;5030732;28;20398;-50
2022/09/18 03:34:32;;;;;;;13.73;3.63;;;9.50;99.90;;;;;;5024630;28;20030;-56
2022/09/18 03:37:18;;;;;;;10.68;3.42;;;9.50;99.90;;;;;;5022438;28;20049;-52
2022/09/18 03:40:04;;;;;;;12.63;3.67;;;9.50;99.90;;;;;;5030872;28;20126;-55
2022/09/18 03:42:50;;;;;;;15.40;4.05;;;9.60;99.90;;;;;;5031108;28;20402;-51
2022/09/18 03:45:36;;;;;;;9.98;3.67;;;9.60;99.90;;;;;;5023925;28;20036;-54
2022/09/18 03:48:22;;;;;;;12.25;3.65;;;9.60;99.90;;;;;;5011164;28;20052;-51
2022/09/18 03:51:08;;;;;;;10.98;4.00;;;9.50;99.90;;;;;;5028447;28;20037;-49
2022/09/18 03:53:54;;;;;;;9.40;3.33;;;9.50;99.90;;;;;;5012775;28;20022;-51
2022/09/18 03:56:40;;;;;;;8.77;3.17;;;9.60;99.90;;;;;;5019705;28;20108;-52
2022/09/18 03:59:26;;;;;;;9.85;3.60;;;9.60;99.90;;;;;;5027863;28;20049;-50
2022/09/18 04:02:12;;;;;;;14.73;3.00;;;9.60;99.90;;;;;;5027583;28;20101;-53
2022/09/18 04:04:58;;;;;;;11.98;4.22;;;9.50;99.90;;;;;;5026788;28;20560;-54
2022/09/18 04:07:44;;;;;;;11.25;3.83;;;9.40;99.90;;;;;;5024789;28;20033;-51
2022/09/18 04:10:31;;;;;;;12.65;3.97;;;9.40;99.90;;;;;;5022061;28;20553;-51
2022/09/18 04:13:18;;;;;;;9.43;3.70;;;9.30;99.90;;;;;;5029882;28;20053;-53
2022/09/18 04:16:04;;;;;;;12.70;4.68;;;9.30;99.90;;;;;;5029581;28;20026;-50
2022/09/18 04:18:50;;;;;;;10.30;4.05;;;9.30;99.90;;;;;;5024335;28;20409;-50
2022/09/18 04:21:36;;;;;;;14.02;4.53;;;9.30;99.90;;;;;;5023406;28;20466;-51
2022/09/18 04:24:22;;;;;;;9.80;3.60;;;9.20;99.90;;;;;;5026191;28;20079;-52
2022/09/18 04:27:08;;;;;;;12.57;3.83;;;9.30;99.90;;;;;;5026676;28;20127;-47
2022/09/18 04:29:53;;;;;;;13.15;4.32;;;9.40;99.90;;;;;;5027055;28;20029;-51
2022/09/18 04:32:42;;;;;;;13.88;4.35;;;9.30;99.90;;;;;;5025153;28;20026;-47
2022/09/18 04:35:28;;;;;;;12.20;3.80;;;9.30;99.90;;;;;;5030176;28;20116;-49
2022/09/18 04:38:14;;;;;;;11.30;3.70;;;9.40;99.90;;;;;;5029834;28;20034;-47
2022/09/18 04:41:00;;;;;;;10.07;3.53;;;9.40;99.90;;;;;;5031065;28;20041;-47
2022/09/18 04:43:46;;;;;;;12.27;4.00;;;9.30;99.90;;;;;;5028917;28;20052;-48
2022/09/18 04:46:32;;;;;;;13.25;4.45;;;9.40;99.90;;;;;;5012053;28;20026;-48
2022/09/18 04:49:18;;;;;;;9.05;3.55;;;9.40;99.90;;;;;;5030159;28;20040;-47
2022/09/18 04:52:04;;;;;;;9.95;3.90;;;9.40;99.90;;;;;;5030050;28;20116;-48
2022/09/18 04:54:50;;;;;;;13.73;3.63;;;9.50;99.90;;;;;;5029887;28;20398;-49
2022/09/18 04:57:36;;;;;;;12.63;3.65;;;9.60;99.90;;;;;;5030257;28;20040;-52
2022/09/18 05:00:22;;;;;;;12.80;3.63;;;9.50;99.90;;;;;;5027993;28;20029;-53
2022/09/18 05:03:09;;;;;;;11.35;4.13;;;9.60;99.90;;;;;;5029032;28;20041;-49
2022/09/18 05:05:55;;;;;;;10.80;3.60;;;9.70;99.90;;;;;;5030091;28;20026;-47
2022/09/18 05:08:40;;;;;;;7.75;3.75;;;9.80;99.90;;;;;;5015925;28;20448;-50
2022/09/18 05:11:26;;;;;;;12.18;3.65;;;9.80;99.90;;;;;;5032589;28;20508;-50
2022/09/18 05:14:12;;;;;;;8.52;3.45;;;9.80;99.90;;;;;;5036369;28;20033;-52
2022/09/18 05:16:58;;;;;;;8.70;3.13;;;9.90;99.90;;;;;;5036267;28;20121;-49
2022/09/18 05:19:44;;;;;;;10.23;3.22;;;9.90;99.90;;;;;;5035179;28;20025;-51
2022/09/18 05:22:30;;;;;;;13.02;3.67;;;9.90;99.90;;;;;;5030698;28;20063;-52
2022/09/18 05:25:17;;;;;;;11.88;3.72;;;9.90;99.90;;;;;;5036884;28;20024;-50
2022/09/18 05:28:04;;;;;;;9.30;3.80;;;9.90;99.90;;;;;;5037719;28;20395;-51
2022/09/18 05:30:50;;;;;;;10.23;3.38;;;9.90;99.90;;;;;;5034235;28;20041;-50
2022/09/18 05:33:37;;;;;;;9.00;3.60;;;10.00;99.90;;;;;;5011483;28;20061;-49
2022/09/18 05:36:23;;;;;;;13.45;5.00;;;10.00;99.90;;;;;;5037571;28;20108;-53
2022/09/18 05:39:09;;;;;;;7.15;3.65;;;10.00;99.90;;;;;;5036989;28;20037;-55
2022/09/18 05:41:55;;;;;;;13.38;4.28;;;9.90;99.90;;;;;;5033086;28;20105;-51
2022/09/18 05:44:41;;;;;;;10.75;4.38;;;9.90;99.90;;;;;;5036664;28;20506;-53
2022/09/18 05:47:27;;;;;;;14.38;3.63;;;9.90;99.90;;;;;;5036221;28;20399;-48
2022/09/18 05:50:13;;;;;;;16.67;5.15;;;9.90;99.90;;;;;;5035954;28;20552;-51
2022/09/18 05:53:16;;;;;;;12.35;3.92;;;9.90;99.90;;;;;;5035313;28;20037;-50
2022/09/18 05:56:02;;;;;;;13.85;3.85;;;10.10;99.90;;;;;;5032183;28;20038;-51
2022/09/18 05:58:48;;;;;;;13.98;3.72;;;10.10;99.90;;;;;;5036975;28;20103;-55
2022/09/18 06:01:34;;;;;;;10.77;4.00;;;10.10;99.90;;;;;;5031524;28;20034;-50
2022/09/18 06:04:20;;;;;;;12.85;3.80;;;10.10;99.90;;;;;;5032924;28;20490;-49
2022/09/18 06:07:06;;;;;;;10.10;3.58;;;10.10;99.90;;;;;;5035047;28;20363;-50
2022/09/18 06:09:52;;;;;;;11.02;3.70;;;10.10;99.90;;;;;;5035761;28;20065;-51
2022/09/18 06:12:38;;;;;;;8.93;3.22;;;10.20;99.90;;;;;;5017998;28;20034;-57
2022/09/18 06:15:24;;;;;;;7.57;3.42;;;10.30;99.90;;;;;;5018330;28;20026;-54
2022/09/18 06:18:10;;;;;;;8.10;3.45;;;10.30;99.90;;;;;;5036023;28;20112;-48
2022/09/18 06:20:57;;;;;;;17.02;3.97;;;10.40;99.90;;;;;;5036606;28;20021;-53
2022/09/18 06:23:43;;;;;;;10.05;3.90;;;10.30;99.90;;;;;;5033610;28;20022;-47
2022/09/18 06:26:30;;;;;;;9.13;3.58;;;10.30;99.90;;;;;;5033142;28;20034;-47
2022/09/18 06:29:16;;;;;;;8.82;3.90;;;10.40;99.90;;;;;;5032203;28;20036;-47
2022/09/18 06:32:02;;;;;;;6.78;2.92;;;10.40;99.90;;;;;;5031114;28;20038;-48
2022/09/18 06:34:49;;;;;;;10.65;3.13;;;10.40;99.90;;;;;;5018796;28;20030;-46
2022/09/18 06:37:35;;;;;;;9.75;3.83;;;10.50;99.90;;;;;;5013354;28;20038;-54
2022/09/18 06:40:21;;;;;;;5.95;3.05;;;10.60;99.90;;;;;;5018689;28;20466;-52
2022/09/18 06:43:08;;;;;;;11.38;3.55;;;10.60;99.90;;;;;;5013770;28;20105;-51
2022/09/18 06:45:55;;;;;;;11.38;3.85;;;10.60;99.90;;;;;;5028339;28;20490;-52
2022/09/18 06:48:41;;;;;;;5.72;3.17;;;10.70;99.90;;;;;;5032705;28;20108;-54
2022/09/18 06:51:27;;;;;;;8.68;3.42;;;10.70;99.90;;;;;;5013617;28;20030;-49
2022/09/18 06:54:14;;;;;;;16.27;3.40;;;10.70;99.90;;;;;;5032675;28;20037;-52
2022/09/18 06:57:00;;;;;;;12.23;3.30;;;10.80;99.90;;;;;;5013668;28;20033;-47
2022/09/18 06:59:46;;;;;;;8.90;3.38;;;10.90;99.90;;;;;;5002792;28;20509;-48
2022/09/18 07:02:32;;;;;;;10.27;3.10;;;10.90;99.90;;;;;;5013553;28;20099;-50
2022/09/18 07:05:18;;;;;;;13.20;3.63;;;11.10;99.90;;;;;;5023979;28;20036;-49
2022/09/18 07:08:04;;;;;;;11.90;3.92;;;11.10;99.90;;;;;;5032883;28;20083;-56
2022/09/18 07:10:50;;;;;;;10.45;3.78;;;11.10;99.90;;;;;;5017100;28;20120;-56
2022/09/18 07:13:37;;;;;;;12.07;3.83;;;11.20;99.90;;;;;;5031430;28;20091;-56
2022/09/18 07:16:23;;;;;;;10.27;4.10;;;11.20;99.90;;;;;;5032170;28;20049;-54
2022/09/18 07:19:09;;;;;;;10.02;3.63;;;11.20;99.90;;;;;;5032695;28;20025;-57
2022/09/18 07:21:55;;;;;;;6.57;3.50;;;11.30;99.90;;;;;;5017770;28;20033;-56
2022/09/18 07:24:40;;;;;;;6.40;3.80;;;11.20;99.90;;;;;;5030434;28;20057;-56
2022/09/18 07:27:28;;;;;;;11.15;3.47;;;11.40;99.90;;;;;;5030462;28;20071;-57
2022/09/18 07:30:14;;;;;;;15.27;4.15;;;11.50;99.90;;;;;;5031511;28;20029;-58
2022/09/18 07:33:05;;;;;;;13.27;3.35;;;11.50;99.90;;;;;;5032506;28;20036;-56
2022/09/18 07:35:51;;;;;;;11.20;3.35;;;11.60;99.90;;;;;;5031727;28;20505;-53
2022/09/18 07:38:38;;;;;;;9.90;3.20;;;11.70;99.90;;;;;;5011430;28;20037;-52
2022/09/18 07:41:24;;;;;;;10.10;3.15;;;11.70;99.90;;;;;;5031061;28;20457;-55
2022/09/18 07:44:10;;;;;;;10.98;3.80;;;11.80;99.90;;;;;;5031393;28;20030;-55
2022/09/18 07:46:55;;;;;;;12.93;4.20;;;11.80;99.90;;;;;;5016763;28;20034;-52
2022/09/18 07:49:42;;;;;;;7.07;3.17;;;11.80;99.90;;;;;;5030654;28;20033;-56
2022/09/18 07:52:28;;;;;;;11.63;3.63;;;11.80;99.90;;;;;;5012029;28;20165;-53
2022/09/18 07:55:14;;;;;;;6.00;3.08;;;11.80;99.90;;;;;;5014531;28;20025;-56
2022/09/18 07:58:03;;;;;;;9.18;3.33;;;11.80;99.90;;;;;;5030428;28;20037;-49
2022/09/18 08:00:50;;;;;;;9.30;3.60;;;11.80;99.90;;;;;;5029630;28;20026;-51
2022/09/18 08:03:39;;;;;;;10.50;3.30;;;12.00;99.90;;;;;;5017550;28;20498;-55
2022/09/18 08:06:24;;;;;;;9.23;3.25;;;12.10;99.90;;;;;;5030779;28;20460;-51
2022/09/18 08:09:10;;;;;;;13.02;3.45;;;12.00;99.90;;;;;;5020490;28;20394;-53
2022/09/18 08:11:57;;;;;;;11.60;3.28;;;12.30;99.90;;;;;;5010535;28;20022;-52
2022/09/18 08:14:42;;;;;;;11.18;3.03;;;12.30;99.90;;;;;;5017405;28;20530;-56
2022/09/18 08:17:28;;;;;;;7.50;3.65;;;12.40;99.90;;;;;;5029922;28;20026;-54
2022/09/18 08:20:14;;;;;;;10.13;3.15;;;12.40;99.90;;;;;;5030180;28;20035;-54
2022/09/18 08:23:02;;;;;;;9.48;3.28;;;12.40;99.90;;;;;;5031449;28;20030;-54
2022/09/18 08:25:48;;;;;;;7.20;3.22;;;12.50;99.90;;;;;;5030450;28;20034;-56
2022/09/18 08:28:34;;;;;;;14.35;3.58;;;12.30;99.90;;;;;;5030601;28;20037;-52
2022/09/18 08:31:20;;;;;;;10.88;4.55;;;12.40;99.90;;;;;;5029487;28;20037;-55
2022/09/18 08:34:06;;;;;;;15.50;3.85;;;12.60;99.90;;;;;;5031376;28;20037;-53
2022/09/18 08:36:54;;;;;;;8.85;3.10;;;12.70;99.90;;;;;;5019218;28;20034;-55
2022/09/18 08:39:39;;;;;;;7.10;2.88;;;12.60;99.90;;;;;;5029942;28;20034;-54
2022/09/18 08:42:41;;;;;;;6.22;2.90;;;12.60;99.90;;;;;;5017213;28;20389;-50
2022/09/18 08:45:41;;;;;;;8.35;3.58;;;12.40;99.90;;;;;;5030278;28;20025;-54
2022/09/18 08:48:38;;;;;;;7.35;2.53;;;12.50;99.90;;;;;;5031612;28;20026;-56
2022/09/18 08:51:30;;;;;;;10.65;3.20;;;12.40;99.90;;;;;;5030788;28;20036;-50
2022/09/18 08:54:34;;;;;;;5.95;2.67;;;12.70;99.90;;;;;;5028549;28;20128;-55
2022/09/18 08:57:45;;;;;;;6.45;3.15;;;12.80;99.90;;;;;;5010115;28;20406;-55
2022/09/18 09:00:54;;;;;;;8.50;3.88;;;12.80;99.90;;;;;;5019712;28;20022;-55
2022/09/18 09:03:58;;;;;;;8.43;4.03;;;12.80;99.90;;;;;;5029631;28;20025;-56
2022/09/18 09:07:19;;;;;;;5.80;2.90;;;13.30;99.90;;;;;;5010344;28;20468;-57
2022/09/18 09:10:23;;;;;;;6.60;2.58;;;13.10;99.90;;;;;;5016653;28;20055;-52
2022/09/18 09:13:31;;;;;;;6.32;2.60;;;12.90;99.60;;;;;;5031037;28;20120;-55
2022/09/18 09:16:31;;;;;;;5.72;2.97;;;12.90;98.90;;;;;;5028962;28;20026;-56
2022/09/18 09:19:17;;;;;;;5.38;2.38;;;13.00;99.10;;;;;;5022266;28;20021;-56
2022/09/18 09:22:18;;;;;;;11.85;2.70;;;13.30;99.30;;;;;;5014283;28;20104;-57
2022/09/18 09:25:35;;;;;;;7.55;2.75;;;13.10;98.90;;;;;;5029272;28;20102;-56
2022/09/18 09:28:30;;;;;;;7.50;2.50;;;13.20;98.70;;;;;;5030512;28;20021;-55
2022/09/18 09:31:21;;;;;;;4.78;2.30;;;13.20;98.00;;;;;;5029967;28;20490;-55
2022/09/18 09:34:24;;;;;;;3.58;1.90;;;13.20;97.90;;;;;;5015018;28;20037;-60
2022/09/18 09:37:15;;;;;;;9.80;3.20;;;13.10;96.70;;;;;;5021278;28;20045;-52
2022/09/18 09:40:17;;;;;;;6.15;2.90;;;13.40;97.70;;;;;;5029708;28;20037;-53
2022/09/18 09:43:09;;;;;;;6.07;2.50;;;13.70;97.60;;;;;;5016142;28;20084;-54
2022/09/18 09:46:00;;;;;;;6.55;3.00;;;13.90;98.00;;;;;;5029179;28;20021;-52
2022/09/18 09:48:55;;;;;;;7.63;2.83;;;14.00;98.20;;;;;;5029438;28;20049;-53
2022/09/18 09:51:52;;;;;;;5.95;2.60;;;13.90;97.60;;;;;;5000304;28;20099;-56
2022/09/18 09:54:38;;;;;;;6.07;2.50;;;13.70;97.30;;;;;;5028677;28;20166;-53
2022/09/18 09:57:48;;;;;;;4.30;2.60;;;13.60;97.30;;;;;;5011713;28;20037;-52
2022/09/18 10:00:49;;;;;;;6.75;2.20;;;13.70;97.30;;;;;;5020742;28;20677;-53
2022/09/18 10:03:56;;;;;;;12.63;4.32;;;13.70;97.60;;;;;;5013615;28;20098;-55
2022/09/18 10:06:58;;;;;;;8.00;2.63;;;13.90;97.80;;;;;;5032504;28;20100;-49
2022/09/18 10:09:54;;;;;;;4.18;2.67;;;13.90;98.30;;;;;;5033086;28;20026;-53
2022/09/18 10:13:09;;;;;;;8.43;2.83;;;13.90;98.20;;;;;;5032989;28;20058;-49
2022/09/18 10:16:35;;;;;;;9.52;3.00;;;14.00;97.90;;;;;;5022273;28;20056;-50
2022/09/18 10:19:28;;;;;;;4.30;2.50;;;14.10;97.90;;;;;;5012224;28;20029;-52
2022/09/18 10:22:18;;;;;;;4.65;2.60;;;14.10;97.70;;;;;;5033260;28;20041;-51
2022/09/18 10:25:20;;;;;;;6.53;2.30;;;14.00;97.50;;;;;;5032875;28;20041;-49
2022/09/18 10:28:11;;;;;;;4.25;2.10;;;14.00;97.60;;;;;;5033670;28;20061;-47
2022/09/18 10:31:01;;;;;;;5.88;2.65;;;14.00;97.50;;;;;;5013277;28;20033;-49
2022/09/18 10:33:51;;;;;;;4.18;2.50;;;13.80;97.60;;;;;;5033265;28;20014;-48
2022/09/18 10:36:42;;;;;;;7.68;2.47;;;13.80;98.10;;;;;;5033074;28;20017;-54
2022/09/18 10:39:37;;;;;;;5.32;2.92;;;13.90;97.90;;;;;;5033096;28;20241;-50
2022/09/18 10:42:28;;;;;;;7.10;2.40;;;13.90;98.10;;;;;;5031953;28;20033;-55
2022/09/18 10:45:26;;;;;;;5.20;2.30;;;13.90;98.50;;;;;;5048452;28;20057;-53
2022/09/18 10:48:18;;;;;;;5.20;2.60;;;14.20;98.00;;;;;;5048420;28;20029;-53
2022/09/18 10:51:04;;;;;;;3.70;2.17;;;14.20;98.00;;;;;;5032922;28;20029;-56
2022/09/18 10:54:23;;;;;;;4.32;1.92;;;14.10;98.20;;;;;;5032725;28;20041;-50
2022/09/18 10:57:36;;;;;;;3.45;2.20;;;14.20;97.90;;;;;;5029373;28;20049;-50
2022/09/18 11:00:23;;;;;;;4.20;2.17;;;13.90;98.30;;;;;;5033183;28;20025;-55
2022/09/18 11:03:21;;;;;;;6.90;2.45;;;13.90;98.40;;;;;;5031410;28;20084;-49
2022/09/18 11:06:25;;;;;;;10.07;4.13;;;13.90;98.40;;;;;;5032547;28;20097;-53
2022/09/18 11:09:18;;;;;;;7.75;2.95;;;13.90;98.90;;;;;;5030991;28;20025;-50
2022/09/18 11:12:11;;;;;;;9.88;3.42;;;13.90;98.90;;;;;;5032727;28;20021;-49
2022/09/18 11:15:05;;;;;;;6.82;2.80;;;14.10;99.00;;;;;;5021232;28;20022;-53
2022/09/18 11:17:54;;;;;;;7.75;2.60;;;14.20;98.30;;;;;;5024879;28;20030;-52
2022/09/18 11:20:43;;;;;;;4.72;2.47;;;13.90;98.50;;;;;;5009427;28;20533;-47
2022/09/18 11:23:34;;;;;;;4.95;2.70;;;14.00;97.90;;;;;;5027516;28;20022;-51
2022/09/18 11:26:27;;;;;;;5.10;2.92;;;14.10;97.70;;;;;;5031876;28;20482;-53
2022/09/18 11:29:29;;;;;;;5.47;2.65;;;14.00;97.80;;;;;;5032257;28;20037;-54
2022/09/18 11:32:20;;;;;;;4.20;2.83;;;14.00;98.80;;;;;;5024491;28;20015;-52
2022/09/18 11:35:14;;;;;;;6.05;2.35;;;14.10;98.10;;;;;;5031775;28;20025;-53
2022/09/18 11:38:06;;;;;;;4.53;2.25;;;14.20;97.80;;;;;;5029204;28;20036;-49
2022/09/18 11:40:55;;;;;;;5.53;2.60;;;14.20;97.80;;;;;;5030986;28;20498;-50
2022/09/18 11:43:42;;;;;;;4.60;2.53;;;13.90;98.30;;;;;;5030752;28;20091;-50
2022/09/18 11:46:43;;;;;;;6.47;2.83;;;13.80;98.70;;;;;;5032687;28;20497;-51
2022/09/18 11:49:58;;;;;;;6.32;2.60;;;13.90;99.00;;;;;;5029419;28;20437;-56
2022/09/18 11:52:53;;;;;;;8.52;2.58;;;13.90;99.30;;;;;;5000635;28;20398;-58
2022/09/18 11:55:45;;;;;;;3.28;2.20;;;13.50;99.90;;;;;;5029188;28;20057;-55
2022/09/18 11:58:37;;;;;;;5.43;2.25;;;13.70;99.70;;;;;;5031309;28;20634;-53
2022/09/18 12:01:35;;;;;;;4.97;1.90;;;13.60;99.60;;;;;;5007470;28;20025;-57
2022/09/18 12:04:37;;;;;;;4.85;2.30;;;13.40;99.60;;;;;;5033271;28;20397;-54
2022/09/18 12:07:57;;;;;;;3.63;2.10;;;13.30;99.80;;;;;;5032177;28;20109;-50
2022/09/18 12:11:09;;;;;;;2.85;1.90;;;13.40;99.90;;;;;;5030610;28;20022;-51
2022/09/18 12:14:04;;;;;;;3.28;1.77;;;13.20;99.50;;;;;;5030656;28;20156;-52
2022/09/18 12:16:57;;;;;;;2.92;1.70;;;13.10;99.60;;;;;;5030800;28;20022;-54
2022/09/18 12:19:49;;;;;;;3.90;1.70;;;12.90;99.60;;;;;;5041014;28;20067;-50
2022/09/18 12:22:59;;;;;;;2.22;1.65;;;12.80;99.30;;;;;;5038992;28;20065;-51
2022/09/18 12:26:10;;;;;;;2.20;1.70;;;12.50;99.90;;;;;;5024741;28;20064;-48
2022/09/18 12:29:14;;;;;;;3.08;2.13;;;12.30;99.90;;;;;;5038797;28;20027;-50
2022/09/18 12:32:23;;;;;;;3.45;1.90;;;12.10;99.90;;;;;;5028490;28;20461;-49
2022/09/18 12:35:30;;;;;;;2.58;1.70;;;12.00;99.90;;;;;;5030371;28;20513;-55
2022/09/18 12:38:31;;;;;;;3.10;1.88;;;11.60;99.90;;;;;;5031184;28;20041;-53
2022/09/18 12:41:44;;;;;;;2.55;1.85;;;11.40;99.90;;;;;;5025825;28;20017;-56
2022/09/18 12:45:24;;;;;;;3.58;2.00;;;11.40;99.90;;;;;;5029152;28;20035;-51
2022/09/18 12:48:19;;;;;;;4.78;2.78;;;11.40;99.90;;;;;;4990792;28;20030;-56
2022/09/18 12:51:40;;;;;;;5.25;2.58;;;11.40;99.90;;;;;;5030827;28;20407;-58
2022/09/18 12:54:32;;;;;;;3.70;2.13;;;11.50;99.90;;;;;;5016278;28;20033;-56
2022/09/18 12:57:56;;;;;;;4.57;2.13;;;11.50;99.90;;;;;;5017426;28;20032;-55
2022/09/18 13:00:46;;;;;;;5.80;2.63;;;11.50;99.90;;;;;;5008061;28;20037;-57
2022/09/18 13:03:37;;;;;;;5.20;3.10;;;11.50;99.90;;;;;;5015962;28;20680;-53
2022/09/18 13:06:38;;;;;;;4.35;2.60;;;11.60;99.90;;;;;;5031137;28;20057;-56
2022/09/18 13:09:38;;;;;;;5.15;2.50;;;11.50;99.90;;;;;;5034716;28;20026;-57
2022/09/18 13:12:52;;;;;;;3.50;2.47;;;11.60;99.90;;;;;;5029879;28;20028;-54
2022/09/18 13:15:43;;;;;;;3.75;2.53;;;11.80;99.90;;;;;;5017070;28;20036;-57
2022/09/18 13:19:16;;;;;;;3.90;2.38;;;11.80;99.90;;;;;;5010687;28;20051;-53
2022/09/18 13:22:08;;;;;;;3.95;2.70;;;11.80;99.90;;;;;;4997003;28;20086;-57
2022/09/18 13:24:55;;;;;;;3.25;2.20;;;11.80;99.90;;;;;;5015680;28;20079;-63
2022/09/18 13:27:41;;;;;;;2.85;2.05;;;11.80;99.90;;;;;;5012186;28;20034;-51
2022/09/18 13:30:29;;;;;;;2.90;2.00;;;11.90;99.90;;;;;;5025682;28;20406;-56
2022/09/18 13:33:26;;;;;;;2.47;2.22;;;11.80;99.90;;;;;;5018756;28;20107;-50
2022/09/18 13:36:36;;;;;;;4.70;2.28;;;11.80;99.90;;;;;;5033708;28;20112;-58
2022/09/18 13:39:28;;;;;;;2.83;2.50;;;11.70;99.90;;;;;;5029091;28;20056;-50
2022/09/18 13:42:27;;;;;;;4.10;2.40;;;11.80;99.90;;;;;;5027469;28;20030;-55
2022/09/18 13:45:21;;;;;;;4.20;2.30;;;11.70;99.90;;;;;;5033291;28;20425;-53
2022/09/18 13:48:42;;;;;;;2.35;2.13;;;11.80;99.90;;;;;;5034721;28;20108;-54
2022/09/18 13:51:31;;;;;;;3.00;2.20;;;11.80;99.90;;;;;;5014048;28;20064;-52
2022/09/18 13:54:19;;;;;;;2.65;2.20;;;11.90;99.90;;;;;;5021051;28;20095;-56
2022/09/18 13:57:13;;;;;;;2.60;2.10;;;11.80;99.90;;;;;;5034042;28;20120;-55
2022/09/18 14:00:01;;;;;;;3.35;2.30;;;11.70;99.90;;;;;;5033788;28;20021;-52
2022/09/18 14:03:08;;;;;;;3.28;2.03;;;11.80;99.90;;;;;;5036812;28;20506;-56
2022/09/18 14:05:54;;;;;;;3.63;2.50;;;11.80;99.90;;;;;;4989727;28;20034;-53
2022/09/18 14:08:40;;;;;;;3.38;2.15;;;11.80;99.90;;;;;;5034279;28;20072;-53
2022/09/18 14:11:26;;;;;;;8.50;2.25;;;11.70;99.90;;;;;;5033309;28;20498;-55
2022/09/18 14:14:18;;;;;;;3.92;2.30;;;11.60;99.90;;;;;;5033904;28;20030;-51
2022/09/18 14:17:15;;;;;;;3.65;2.65;;;11.60;99.90;;;;;;5033962;28;20057;-52
2022/09/18 14:20:09;;;;;;;3.42;2.40;;;11.70;99.90;;;;;;5035350;28;20528;-50
2022/09/18 14:23:15;;;;;;;2.95;2.20;;;11.60;99.90;;;;;;5021918;28;20042;-53
2022/09/18 14:26:08;;;;;;;3.67;2.25;;;11.70;99.90;;;;;;5022556;28;20025;-52
2022/09/18 14:29:15;;;;;;;2.95;2.20;;;11.80;99.90;;;;;;5037374;28;20029;-52
2022/09/18 14:32:02;;;;;;;2.95;2.20;;;11.80;99.90;;;;;;5033563;28;20505;-49
2022/09/18 14:34:53;;;;;;;4.55;2.10;;;11.70;99.90;;;;;;5034379;28;20029;-50
2022/09/18 14:37:39;;;;;;;5.97;2.15;;;11.60;99.90;;;;;;5039569;28;20026;-52
2022/09/18 14:40:28;;;;;;;3.30;2.15;;;11.60;99.90;;;;;;5033310;28;20076;-51
2022/09/18 14:43:16;;;;;;;7.63;2.10;;;11.60;99.90;;;;;;5015546;28;20026;-57
2022/09/18 14:46:02;;;;;;;4.93;2.17;;;11.50;99.90;;;;;;5015614;28;20024;-51
2022/09/18 14:48:48;;;;;;;2.13;1.88;;;11.50;99.90;;;;;;5013123;28;20033;-49
2022/09/18 14:51:44;;;;;;;2.67;1.80;;;11.50;99.90;;;;;;5014278;28;20739;-48
2022/09/18 14:54:30;;;;;;;4.03;1.95;;;11.40;99.90;;;;;;5033843;28;20034;-49